Time;durP1;ratioP1;P1;durP2;ratioP2;P2;SDS_P1;SDS_P2;PMS_P1;PMS_P2;Temp;Humidity;BMP_temperature;BMP_pressure;BME280_temperature;BME280_humidity;BME280_pressure;Samples;Min_cycle;Max_cycle;Signal;HPM_P1;HPM_P2
2023/02/26 00:01:12;;;;;;;0.10;0.10;;;;;;;0.68;90.57;97410.44;5063546;28;20512;-68
2023/02/26 00:03:38;;;;;;;0.10;0.10;;;;;;;0.73;90.67;97417.72;5067063;28;20056;-69
2023/02/26 00:06:04;;;;;;;0.10;0.10;;;;;;;0.76;90.62;97401.03;5064526;28;20364;-68
2023/02/26 00:08:30;;;;;;;0.10;0.10;;;;;;;0.77;90.74;97395.41;5064299;28;20078;-68
2023/02/26 00:10:57;;;;;;;0.10;0.10;;;;;;;0.77;90.85;97373.06;5064120;28;20047;-68
2023/02/26 00:13:23;;;;;;;0.10;0.10;;;;;;;0.72;91.01;97375.75;5066620;28;20044;-68
2023/02/26 00:15:55;;;;;;;0.10;0.10;;;;;;;0.68;91.27;97380.84;5062127;28;20064;-68
2023/02/26 00:18:23;;;;;;;0.10;0.10;;;;;;;0.64;91.55;97369.84;5063897;28;20056;-68
2023/02/26 00:20:50;;;;;;;0.10;0.10;;;;;;;0.62;91.95;97363.91;5065775;28;20044;-68
2023/02/26 00:23:17;;;;;;;0.10;0.10;;;;;;;0.63;92.21;97362.84;5063779;28;20159;-68
2023/02/26 00:25:43;;;;;;;0.10;0.10;;;;;;;0.68;92.38;97348.59;5047620;28;20539;-68
2023/02/26 00:28:10;;;;;;;0.10;0.10;;;;;;;0.63;92.43;97332.44;5064727;28;20040;-68
2023/02/26 00:30:37;;;;;;;0.10;0.10;;;;;;;0.69;92.61;97331.38;5045092;28;20048;-68
2023/02/26 00:33:04;;;;;;;0.10;0.10;;;;;;;0.72;92.77;97327.34;5062889;28;20558;-68
2023/02/26 00:35:33;;;;;;;0.10;0.10;;;;;;;0.70;92.67;97320.34;5065985;28;20060;-68
2023/02/26 00:38:01;;;;;;;0.10;0.10;;;;;;;0.64;92.62;97310.69;5065235;28;20420;-67
2023/02/26 00:40:35;;;;;;;0.10;0.10;;;;;;;0.59;92.67;97301.81;5042968;28;20060;-68
2023/02/26 00:43:02;;;;;;;0.10;0.10;;;;;;;0.59;92.95;97273.00;5044120;28;20127;-68
2023/02/26 00:45:30;;;;;;;0.10;0.10;;;;;;;0.54;93.17;97294.53;5047078;28;20516;-68
2023/02/26 00:48:25;;;;;;;0.10;0.10;;;;;;;0.48;93.16;97274.91;5058887;28;20133;-67
2023/02/26 00:50:58;;;;;;;0.10;0.10;;;;;;;0.43;93.41;97258.78;5041768;28;20420;-68
2023/02/26 00:53:31;;;;;;;0.10;0.10;;;;;;;0.35;93.58;97257.47;5064326;28;20055;-68
2023/02/26 00:55:57;;;;;;;0.10;0.10;;;;;;;0.30;94.04;97260.13;5061264;28;20057;-69
2023/02/26 00:58:23;;;;;;;0.10;0.10;;;;;;;0.22;94.07;97253.41;5062620;28;20048;-69
2023/02/26 01:00:49;;;;;;;0.10;0.10;;;;;;;0.19;94.11;97256.66;5067526;28;20207;-69
2023/02/26 01:03:16;;;;;;;0.10;0.10;;;;;;;0.12;94.33;97266.88;5063451;28;20130;-69
2023/02/26 01:05:43;;;;;;;0.10;0.10;;;;;;;0.10;94.94;97274.41;5065400;28;20125;-69
2023/02/26 01:08:15;;;;;;;0.20;0.20;;;;;;;0.11;95.22;97281.38;5065134;28;20118;-68
2023/02/26 01:10:42;;;;;;;0.10;0.10;;;;;;;0.10;95.59;97277.09;5062241;28;20484;-68
2023/02/26 01:13:09;;;;;;;0.10;0.10;;;;;;;0.07;95.85;97272.22;5062395;28;20515;-68
2023/02/26 01:15:35;;;;;;;0.10;0.10;;;;;;;0.04;96.06;97260.16;5063295;28;20566;-70
2023/02/26 01:18:10;;;;;;;0.10;0.10;;;;;;;0.03;96.19;97265.78;5062101;28;20057;-71
2023/02/26 01:20:44;;;;;;;0.10;0.10;;;;;;;0.03;96.35;97255.03;5046286;28;20044;-70
2023/02/26 01:23:15;;;;;;;0.10;0.10;;;;;;;0.02;96.43;97248.88;5060071;28;20048;-70
2023/02/26 01:25:47;;;;;;;0.10;0.10;;;;;;;0.01;96.58;97249.13;5063139;28;20045;-70
2023/02/26 01:28:13;;;;;;;0.10;0.10;;;;;;;-0.01;96.66;97249.38;5062193;28;20135;-70
2023/02/26 01:30:41;;;;;;;;;;;;;;;0.01;97.00;97249.13;5064910;28;20587;-70
2023/02/26 01:33:14;;;;;;;0.20;0.20;;;;;;;0.00;97.10;97245.66;5062917;28;19928;-68
2023/02/26 01:35:47;;;;;;;0.10;0.10;;;;;;;-0.01;97.30;97231.41;5044277;28;20048;-68
2023/02/26 01:38:27;;;;;;;0.17;0.17;;;;;;;-0.01;97.53;97225.19;5064889;28;20058;-68
2023/02/26 01:41:12;;;;;;;0.10;0.10;;;;;;;-0.05;97.66;97224.94;5059904;28;20069;-68
2023/02/26 01:43:47;;;;;;;0.10;0.10;;;;;;;-0.06;97.70;97219.84;5047182;28;20079;-68
2023/02/26 01:46:17;;;;;;;0.10;0.10;;;;;;;-0.05;97.75;97208.84;5062059;28;20075;-68
2023/02/26 01:48:50;;;;;;;0.10;0.10;;;;;;;-0.05;97.77;97205.31;5061697;28;20174;-68
2023/02/26 01:51:18;;;;;;;0.10;0.10;;;;;;;-0.03;97.97;97204.00;5064789;28;20044;-68
2023/02/26 01:53:45;;;;;;;0.10;0.10;;;;;;;-0.05;98.06;97200.78;5062355;28;20052;-68
2023/02/26 01:56:14;;;;;;;0.17;0.17;;;;;;;-0.05;98.08;97195.41;5063749;28;20059;-68
2023/02/26 01:58:40;;;;;;;0.40;0.13;;;;;;;-0.10;97.96;97190.00;5063825;28;20091;-68
2023/02/26 02:01:07;;;;;;;0.10;0.10;;;;;;;-0.09;98.42;97190.84;5062217;28;20048;-68
2023/02/26 02:03:36;;;;;;;0.10;0.10;;;;;;;-0.10;98.52;97176.56;5063644;28;20048;-68
2023/02/26 02:06:05;;;;;;;0.10;0.10;;;;;;;-0.06;98.68;97164.25;5059946;28;20115;-67
2023/02/26 02:08:34;;;;;;;0.10;0.10;;;;;;;-0.11;98.75;97166.91;5064502;28;20056;-67
2023/02/26 02:11:05;;;;;;;0.10;0.10;;;;;;;-0.09;99.04;97172.03;5064232;28;20047;-68
2023/02/26 02:13:50;;;;;;;0.10;0.10;;;;;;;-0.08;99.17;97168.25;5067688;28;20037;-68
2023/02/26 02:16:25;;;;;;;0.10;0.10;;;;;;;-0.01;99.22;97169.59;5066853;28;20226;-67
2023/02/26 02:18:59;;;;;;;0.10;0.10;;;;;;;0.06;99.41;97185.44;5067930;28;20431;-67
2023/02/26 02:21:47;;;;;;;0.10;0.10;;;;;;;-0.01;98.95;97169.59;5064833;28;20177;-67
2023/02/26 02:24:17;;;;;;;0.10;0.10;;;;;;;0.03;99.12;97186.00;5068016;28;20064;-68
2023/02/26 02:27:09;;;;;;;0.10;0.10;;;;;;;0.03;98.95;97179.81;5065009;28;20053;-68
2023/02/26 02:30:09;;;;;;;0.10;0.10;;;;;;;0.01;98.88;97176.59;5064752;28;20072;-68
2023/02/26 02:32:42;;;;;;;0.10;0.10;;;;;;;-0.10;98.42;97171.19;5052398;28;20059;-68
2023/02/26 02:35:16;;;;;;;0.10;0.10;;;;;;;-0.18;98.59;97172.56;5065565;28;20070;-67
2023/02/26 02:37:46;;;;;;;0.10;0.10;;;;;;;-0.35;98.47;97178.22;5065616;28;20048;-67
2023/02/26 02:40:16;;;;;;;0.10;0.10;;;;;;;-0.38;99.10;97175.25;5064485;28;20045;-69
2023/02/26 02:42:47;;;;;;;0.10;0.10;;;;;;;-0.41;99.19;97170.41;5068398;28;20052;-69
2023/02/26 02:45:18;;;;;;;0.10;0.10;;;;;;;-0.48;99.38;97157.25;5068505;28;20044;-68
2023/02/26 02:47:51;;;;;;;0.10;0.10;;;;;;;-0.50;99.34;97162.88;5068305;28;20123;-69
2023/02/26 02:50:23;;;;;;;0.10;0.10;;;;;;;-0.53;99.80;97160.72;5064046;28;20385;-68
2023/02/26 02:52:55;;;;;;;0.30;0.13;;;;;;;-0.50;99.86;97152.13;5066579;28;20048;-68
2023/02/26 02:55:25;;;;;;;0.10;0.10;;;;;;;-0.62;99.93;97133.59;5083159;28;20541;-68
2023/02/26 02:57:58;;;;;;;0.10;0.10;;;;;;;-0.50;100.00;97137.91;5065176;28;20084;-68
2023/02/26 03:00:26;;;;;;;0.10;0.10;;;;;;;-0.45;100.00;97135.22;5066629;28;20044;-68
2023/02/26 03:03:00;;;;;;;0.10;0.10;;;;;;;-0.44;100.00;97134.97;5065478;28;20051;-68
2023/02/26 03:05:27;;;;;;;0.10;0.10;;;;;;;-0.40;100.00;97131.75;5063121;28;20064;-69
2023/02/26 03:07:57;;;;;;;0.10;0.10;;;;;;;-0.39;100.00;97136.03;5064103;28;20139;-69
2023/02/26 03:10:23;;;;;;;0.10;0.10;;;;;;;-0.35;100.00;97132.56;5063950;28;20048;-69
2023/02/26 03:12:49;;;;;;;0.10;0.10;;;;;;;-0.29;100.00;97144.09;5065836;28;20051;-69
2023/02/26 03:15:32;;;;;;;0.10;0.10;;;;;;;-0.27;100.00;97133.06;5065803;28;20127;-69
2023/02/26 03:18:13;;;;;;;0.10;0.10;;;;;;;-0.26;100.00;97138.19;5062803;28;20063;-69
2023/02/26 03:20:52;;;;;;;0.10;0.10;;;;;;;-0.24;100.00;97121.78;5051057;28;20051;-69
2023/02/26 03:23:22;;;;;;;0.10;0.10;;;;;;;-0.23;100.00;97126.13;5046226;28;20106;-67
2023/02/26 03:25:51;;;;;;;0.10;0.10;;;;;;;-0.27;100.00;97115.09;5080022;28;20055;-68
2023/02/26 03:28:24;;;;;;;0.10;0.10;;;;;;;-0.21;100.00;97114.00;5064167;28;20056;-67
2023/02/26 03:30:57;;;;;;;0.10;0.10;;;;;;;-0.20;100.00;97130.94;5064979;28;20432;-67
2023/02/26 03:33:30;;;;;;;0.10;0.10;;;;;;;-0.33;100.00;97111.59;5047815;28;20559;-68
2023/02/26 03:36:00;;;;;;;0.10;0.10;;;;;;;-0.24;100.00;97127.97;5065496;28;20049;-69
2023/02/26 03:38:32;;;;;;;0.10;0.10;;;;;;;-0.25;100.00;97123.69;5064797;28;20067;-68
2023/02/26 03:41:03;;;;;;;0.10;0.10;;;;;;;-0.26;100.00;97140.06;5064820;28;20055;-68
2023/02/26 03:43:36;;;;;;;0.10;0.10;;;;;;;-0.21;100.00;97124.75;5065418;28;20060;-68
2023/02/26 03:46:12;;;;;;;0.10;0.10;;;;;;;-0.19;100.00;97137.91;5063275;28;20052;-69
2023/02/26 03:48:42;;;;;;;0.10;0.10;;;;;;;-0.21;100.00;97153.50;5065222;28;20062;-68
2023/02/26 03:51:11;;;;;;;0.10;0.10;;;;;;;-0.19;100.00;97149.44;5067442;28;20557;-68
2023/02/26 03:54:18;;;;;;;;;;;;;;;-0.19;100.00;97148.66;4986715;28;20069;-68
2023/02/26 03:56:49;;;;;;;0.10;0.10;;;;;;;-0.25;100.00;97129.06;4936982;28;19926;-68
2023/02/26 03:59:34;;;;;;;0.10;0.10;;;;;;;-0.24;100.00;97152.16;4985436;28;20066;-68
2023/02/26 04:02:25;;;;;;;0.10;0.10;;;;;;;-0.22;100.00;97163.44;4985439;28;20082;-68
2023/02/26 04:05:02;;;;;;;0.10;0.10;;;;;;;-0.22;100.00;97157.25;4967396;28;20251;-68
2023/02/26 04:07:29;;;;;;;0.10;0.10;;;;;;;-0.22;100.00;97151.91;4984354;28;20046;-68
2023/02/26 04:09:56;;;;;;;0.20;0.20;;;;;;;-0.23;100.00;97159.13;4982521;28;20449;-68
2023/02/26 04:12:27;;;;;;;0.10;0.10;;;;;;;-0.16;100.00;97165.06;4967897;28;20320;-68
2023/02/26 04:14:54;;;;;;;0.10;0.10;;;;;;;-0.12;100.00;97170.66;4966287;28;20042;-68
2023/02/26 04:17:20;;;;;;;0.10;0.10;;;;;;;-0.11;100.00;97182.25;5005109;28;20046;-69
2023/02/26 04:19:46;;;;;;;0.10;0.10;;;;;;;-0.10;100.00;97183.84;4986431;28;20056;-69
2023/02/26 04:22:14;;;;;;;0.10;0.10;;;;;;;-0.05;100.00;97187.34;4986810;28;20046;-68
2023/02/26 04:24:40;;;;;;;0.10;0.10;;;;;;;-0.04;100.00;97182.75;5007357;28;20122;-68
2023/02/26 04:27:07;;;;;;;0.10;0.10;;;;;;;0.01;100.00;97190.00;5054328;28;20102;-68
2023/02/26 04:29:33;;;;;;;0.10;0.10;;;;;;;-0.10;100.00;97198.06;5065823;28;20040;-68
2023/02/26 04:32:00;;;;;;;0.15;0.10;;;;;;;0.03;100.00;97212.03;5060854;28;20141;-68
2023/02/26 04:34:27;;;;;;;;;;;;;;;0.06;100.00;97198.88;5049822;28;20065;-67
2023/02/26 04:36:53;;;;;;;0.10;0.10;;;;;;;-0.03;100.00;97181.69;5064358;28;19928;-69
2023/02/26 04:39:20;;;;;;;0.10;0.10;;;;;;;0.12;100.00;97218.50;5065571;28;20052;-68
2023/02/26 04:41:46;;;;;;;0.15;0.15;;;;;;;0.04;100.00;97206.41;5063078;28;20044;-68
2023/02/26 04:44:13;;;;;;;0.10;0.10;;;;;;;0.12;100.00;97243.47;5063086;28;20136;-68
2023/02/26 04:46:41;;;;;;;0.10;0.10;;;;;;;0.13;99.97;97239.72;5057102;28;20269;-69
2023/02/26 04:49:07;;;;;;;0.17;0.17;;;;;;;0.14;99.88;97241.31;5041569;28;20057;-68
2023/02/26 04:51:35;;;;;;;0.10;0.10;;;;;;;0.16;100.00;97242.94;5041129;28;20037;-68
2023/02/26 04:54:01;;;;;;;0.10;0.10;;;;;;;0.17;99.70;97245.38;5043192;28;20068;-69
2023/02/26 04:56:28;;;;;;;0.10;0.10;;;;;;;0.19;99.55;97243.22;5046080;28;20508;-68
2023/02/26 04:58:54;;;;;;;0.15;0.15;;;;;;;0.23;99.54;97243.47;5045971;28;20111;-68
2023/02/26 05:01:27;;;;;;;0.10;0.10;;;;;;;0.28;99.43;97256.91;5025933;28;20095;-68
2023/02/26 05:03:53;;;;;;;0.10;0.10;;;;;;;0.28;99.21;97257.72;5027115;28;20044;-68
2023/02/26 05:06:19;;;;;;;0.10;0.10;;;;;;;0.33;98.72;97262.31;5043495;28;20068;-68
2023/02/26 05:08:45;;;;;;;0.10;0.10;;;;;;;0.35;98.55;97272.78;5061228;28;20048;-68
2023/02/26 05:11:12;;;;;;;0.10;0.10;;;;;;;0.38;98.53;97281.09;5064425;28;20048;-68
2023/02/26 05:13:39;;;;;;;0.10;0.10;;;;;;;0.40;97.99;97287.03;5061572;28;20476;-68
2023/02/26 05:16:06;;;;;;;0.10;0.10;;;;;;;0.42;97.21;97284.06;5063017;28;20051;-68
2023/02/26 05:18:33;;;;;;;0.10;0.10;;;;;;;0.41;96.54;97307.44;5062234;28;20051;-68
2023/02/26 05:20:59;;;;;;;0.10;0.10;;;;;;;0.32;96.50;97303.72;5064943;28;20040;-68
2023/02/26 05:23:26;;;;;;;0.47;0.10;;;;;;;0.38;96.31;97307.19;5063430;28;20057;-68
2023/02/26 05:25:54;;;;;;;0.10;0.10;;;;;;;0.39;96.22;97306.91;5046837;28;20082;-68
2023/02/26 05:28:20;;;;;;;0.10;0.10;;;;;;;0.33;96.39;97312.56;5064369;28;20040;-68
2023/02/26 05:30:48;;;;;;;0.10;0.10;;;;;;;0.42;96.04;97327.09;5062237;28;20195;-68
2023/02/26 05:33:14;;;;;;;0.10;0.10;;;;;;;0.42;95.04;97327.88;5061947;28;20090;-68
2023/02/26 05:35:40;;;;;;;0.10;0.10;;;;;;;0.39;93.41;97325.75;5063544;28;20072;-68
2023/02/26 05:38:06;;;;;;;0.10;0.10;;;;;;;0.39;93.70;97323.03;5063305;28;20500;-68
2023/02/26 05:40:32;;;;;;;0.10;0.10;;;;;;;0.45;91.71;97344.56;5062989;28;20044;-68
2023/02/26 05:42:58;;;;;;;0.10;0.10;;;;;;;0.34;91.36;97331.13;5064924;28;20522;-70
2023/02/26 05:45:25;;;;;;;0.10;0.10;;;;;;;0.47;90.13;97350.47;5063570;28;20122;-71
2023/02/26 05:47:52;;;;;;;0.17;0.17;;;;;;;0.50;90.09;97355.31;5063079;28;20045;-70
2023/02/26 05:50:18;;;;;;;;;;;;;;;0.53;88.77;97352.09;5061732;28;20447;-70
2023/02/26 05:52:44;;;;;;;0.10;0.10;;;;;;;0.45;88.25;97344.56;5065030;28;19924;-70
2023/02/26 05:55:11;;;;;;;0.10;0.10;;;;;;;0.53;87.92;97363.66;5044418;28;20157;-70
2023/02/26 05:57:38;;;;;;;0.10;0.10;;;;;;;0.51;87.73;97368.47;5061660;28;20106;-70
2023/02/26 06:00:06;;;;;;;0.10;0.10;;;;;;;0.54;87.49;97369.84;5060439;28;20041;-70
2023/02/26 06:02:38;;;;;;;0.10;0.10;;;;;;;0.55;86.81;97361.53;5042394;28;20104;-70
2023/02/26 06:05:07;;;;;;;0.10;0.10;;;;;;;0.59;86.75;97361.75;5041717;28;20057;-70
2023/02/26 06:07:33;;;;;;;0.10;0.10;;;;;;;0.59;86.31;97375.22;5042814;28;20056;-70
2023/02/26 06:09:59;;;;;;;0.10;0.10;;;;;;;0.61;86.19;97364.97;5041780;28;20140;-70
2023/02/26 06:12:26;;;;;;;0.10;0.10;;;;;;;0.62;85.92;97369.28;5058657;28;20110;-70
2023/02/26 06:14:55;;;;;;;0.13;0.13;;;;;;;0.65;85.47;97398.38;5059915;28;20464;-68
2023/02/26 06:17:21;;;;;;;0.20;0.20;;;;;;;0.68;84.68;97378.16;5060012;28;20102;-68
2023/02/26 06:19:47;;;;;;;0.10;0.10;;;;;;;0.69;84.51;97407.50;5063172;28;20690;-68
2023/02/26 06:22:14;;;;;;;0.10;0.10;;;;;;;0.65;84.36;97392.97;5045659;28;20552;-68
2023/02/26 06:24:41;;;;;;;0.10;0.10;;;;;;;0.68;84.37;97403.19;5064498;28;20597;-68
2023/02/26 06:27:07;;;;;;;0.10;0.10;;;;;;;0.77;82.97;97391.88;5059232;28;20135;-68
2023/02/26 06:29:35;;;;;;;0.10;0.10;;;;;;;0.81;83.02;97395.66;5062392;28;20465;-68
2023/02/26 06:32:01;;;;;;;0.10;0.10;;;;;;;0.87;82.59;97405.34;5064480;28;20114;-68
2023/02/26 06:34:27;;;;;;;0.17;0.17;;;;;;;0.83;82.64;97410.44;5060238;28;20450;-68
2023/02/26 06:36:53;;;;;;;0.10;0.10;;;;;;;0.87;82.43;97399.16;5065178;28;20178;-68
2023/02/26 06:39:21;;;;;;;0.10;0.10;;;;;;;0.90;82.22;97407.50;5064494;28;20039;-68
2023/02/26 06:41:47;;;;;;;0.10;0.10;;;;;;;0.89;81.34;97395.09;5064166;28;20146;-68
2023/02/26 06:44:13;;;;;;;0.10;0.10;;;;;;;0.90;81.92;97415.56;5057655;28;20064;-68
2023/02/26 06:46:39;;;;;;;0.10;0.10;;;;;;;0.90;82.08;97417.47;5061851;28;20057;-68
2023/02/26 06:49:05;;;;;;;0.10;0.10;;;;;;;0.94;81.79;97427.41;5062653;28;20039;-69
2023/02/26 06:51:32;;;;;;;0.10;0.10;;;;;;;0.92;81.91;97420.69;5062955;28;20136;-68
2023/02/26 06:53:58;;;;;;;0.20;0.20;;;;;;;0.90;82.17;97431.69;5066677;28;20041;-68
2023/02/26 06:56:26;;;;;;;0.10;0.10;;;;;;;0.95;82.13;97445.19;5063802;28;20110;-68
2023/02/26 06:58:55;;;;;;;0.10;0.10;;;;;;;0.91;82.07;97445.97;4715169;28;10000523;-69
2023/02/26 07:01:24;;;;;;;0.20;0.20;;;;;;;0.89;82.32;97443.53;5063475;28;20055;-69
2023/02/26 07:03:50;;;;;;;0.10;0.10;;;;;;;0.92;82.71;97453.75;5065135;28;20056;-68
2023/02/26 07:06:17;;;;;;;0.10;0.10;;;;;;;0.97;82.37;97474.50;5062582;28;20068;-69
2023/02/26 07:08:44;;;;;;;0.10;0.10;;;;;;;1.02;81.83;97462.94;5044164;28;20155;-69
2023/02/26 07:11:10;;;;;;;0.10;0.10;;;;;;;1.02;81.86;97455.66;5065844;28;20072;-70
2023/02/26 07:13:38;;;;;;;0.10;0.10;;;;;;;0.97;81.90;97482.56;5058332;28;20084;-70
2023/02/26 07:16:08;;;;;;;0.10;0.10;;;;;;;1.04;82.04;97480.44;5059114;28;20048;-71
2023/02/26 07:18:34;;;;;;;0.10;0.10;;;;;;;0.97;82.41;97469.09;5058321;28;20081;-71
2023/02/26 07:21:01;;;;;;;0.10;0.10;;;;;;;0.92;82.42;97475.28;5065518;28;20053;-71
2023/02/26 07:23:27;;;;;;;0.10;0.10;;;;;;;0.95;82.68;97468.56;5056276;28;20508;-71
2023/02/26 07:25:56;;;;;;;0.10;0.10;;;;;;;0.95;82.11;97469.41;5057562;28;20442;-70
2023/02/26 07:28:22;;;;;;;0.20;0.20;;;;;;;1.02;81.84;97495.22;5066010;28;20044;-71
2023/02/26 07:30:50;;;;;;;0.10;0.10;;;;;;;0.95;81.63;97482.84;5065809;28;20149;-70
2023/02/26 07:33:16;;;;;;;0.10;0.10;;;;;;;1.05;81.59;97482.03;5065151;28;20274;-70
2023/02/26 07:35:42;;;;;;;0.10;0.10;;;;;;;1.06;80.98;97469.38;5066746;28;20106;-71
2023/02/26 07:38:08;;;;;;;0.10;0.10;;;;;;;1.13;80.85;97486.09;5066745;28;20052;-71
2023/02/26 07:40:34;;;;;;;0.10;0.10;;;;;;;1.15;80.47;97489.31;5067499;28;20102;-70
2023/02/26 07:43:00;;;;;;;0.10;0.10;;;;;;;1.12;80.18;97509.50;5066870;28;20359;-71
2023/02/26 07:45:26;;;;;;;0.15;0.15;;;;;;;1.16;79.67;97503.56;5068215;28;20049;-71
2023/02/26 07:47:54;;;;;;;0.10;0.10;;;;;;;1.19;79.76;97503.03;5068000;28;20052;-71
2023/02/26 07:50:20;;;;;;;0.17;0.17;;;;;;;1.29;78.95;97503.03;5069839;28;20075;-75
2023/02/26 07:52:46;;;;;;;0.10;0.10;;;;;;;1.21;79.06;97493.59;5064796;28;20479;-70
2023/02/26 07:55:12;;;;;;;0.10;0.10;;;;;;;1.19;79.11;97509.22;5047316;28;20122;-70
2023/02/26 07:57:38;;;;;;;0.10;0.10;;;;;;;1.25;78.83;97505.47;5065606;28;20454;-71
2023/02/26 08:00:06;;;;;;;0.20;0.20;;;;;;;1.28;78.55;97498.72;5028269;28;20508;-70
2023/02/26 08:02:38;;;;;;;0.10;0.10;;;;;;;1.33;77.99;97508.69;5066571;28;20087;-71
2023/02/26 08:05:06;;;;;;;0.10;0.10;;;;;;;1.25;77.24;97520.81;5065098;28;20285;-70
2023/02/26 08:07:32;;;;;;;0.10;0.10;;;;;;;1.26;77.88;97514.34;5065926;28;20575;-71
2023/02/26 08:09:58;;;;;;;0.10;0.10;;;;;;;1.35;78.21;97531.56;5068779;28;20144;-71
2023/02/26 08:12:24;;;;;;;0.10;0.10;;;;;;;1.39;77.34;97535.34;5067007;28;20045;-71
2023/02/26 08:14:50;;;;;;;0.20;0.20;;;;;;;1.47;76.72;97535.84;5065801;28;20048;-71
2023/02/26 08:17:16;;;;;;;0.20;0.20;;;;;;;1.61;76.32;97522.66;5047546;28;20049;-71
2023/02/26 08:19:43;;;;;;;0.20;0.20;;;;;;;1.77;75.95;97539.59;5048798;28;20053;-71
2023/02/26 08:22:10;;;;;;;0.20;0.20;;;;;;;2.05;75.31;97545.47;5064938;28;20044;-71
2023/02/26 08:24:38;;;;;;;0.20;0.20;;;;;;;2.26;72.57;97544.34;5066455;28;20036;-71
2023/02/26 08:27:04;;;;;;;0.10;0.10;;;;;;;2.28;71.36;97541.34;5063404;28;20482;-71
2023/02/26 08:29:30;;;;;;;0.20;0.20;;;;;;;2.27;69.67;97537.03;5066145;28;20143;-71
2023/02/26 08:31:56;;;;;;;0.10;0.10;;;;;;;2.12;70.06;97562.19;5066263;28;20131;-71
2023/02/26 08:34:22;;;;;;;0.10;0.10;;;;;;;2.05;69.73;97542.78;5048760;28;20068;-71
2023/02/26 08:36:49;;;;;;;0.10;0.10;;;;;;;1.91;70.95;97561.41;5065224;28;20049;-71
2023/02/26 08:39:16;;;;;;;0.10;0.10;;;;;;;1.87;71.00;97566.53;5066050;28;20462;-71
2023/02/26 08:41:44;;;;;;;0.10;0.10;;;;;;;1.79;72.52;97580.53;5045880;28;20493;-71
2023/02/26 08:44:10;;;;;;;0.10;0.10;;;;;;;1.61;75.93;97584.63;5065034;28;20098;-71
2023/02/26 08:46:36;;;;;;;0.13;0.13;;;;;;;1.44;77.41;97601.03;5064574;28;20052;-72
2023/02/26 08:49:02;;;;;;;0.13;0.13;;;;;;;1.34;77.79;97621.53;5046485;28;20594;-71
2023/02/26 08:51:29;;;;;;;0.10;0.10;;;;;;;1.24;78.08;97616.13;5046776;28;20131;-71
2023/02/26 08:53:55;;;;;;;0.10;0.10;;;;;;;1.09;77.14;97606.09;5064945;28;20450;-71
2023/02/26 08:56:23;;;;;;;0.20;0.20;;;;;;;1.12;76.20;97629.84;5065987;28;20616;-71
2023/02/26 08:58:49;;;;;;;0.30;0.30;;;;;;;1.85;76.37;97622.59;5063347;28;20431;-71
2023/02/26 09:01:15;;;;;;;0.20;0.20;;;;;;;3.10;69.46;97618.41;5063759;28;20149;-71
2023/02/26 09:03:41;;;;;;;0.20;0.20;;;;;;;3.02;69.01;97612.78;5066008;28;20139;-71
2023/02/26 09:06:07;;;;;;;0.10;0.10;;;;;;;2.48;70.13;97634.06;5064966;28;20435;-70
2023/02/26 09:08:33;;;;;;;0.10;0.10;;;;;;;2.03;70.33;97625.81;5065150;28;20487;-70
2023/02/26 09:11:01;;;;;;;0.10;0.10;;;;;;;1.84;71.72;97643.34;5063698;28;20047;-70
2023/02/26 09:13:28;;;;;;;0.10;0.10;;;;;;;1.63;71.68;97637.13;5063927;28;20040;-71
2023/02/26 09:15:55;;;;;;;0.10;0.10;;;;;;;1.53;72.27;97645.22;5058630;28;20052;-71
2023/02/26 09:18:21;;;;;;;0.10;0.10;;;;;;;1.53;72.04;97646.03;5061611;28;20463;-71
2023/02/26 09:20:47;;;;;;;0.10;0.10;;;;;;;1.53;71.77;97651.41;5061465;28;20082;-70
2023/02/26 09:23:13;;;;;;;0.10;0.10;;;;;;;1.54;70.37;97639.56;5063334;28;20093;-70
2023/02/26 09:25:39;;;;;;;0.10;0.10;;;;;;;1.53;69.82;97648.72;5045620;28;20066;-70
2023/02/26 09:28:05;;;;;;;0.10;0.10;;;;;;;1.54;69.78;97633.38;5044899;28;20051;-70
2023/02/26 09:30:33;;;;;;;0.10;0.10;;;;;;;1.57;69.73;97654.38;5066177;28;20113;-71
2023/02/26 09:32:59;;;;;;;0.10;0.10;;;;;;;1.52;69.75;97649.00;5064679;28;20406;-71
2023/02/26 09:35:25;;;;;;;0.10;0.10;;;;;;;1.51;70.99;97667.03;5062219;28;20454;-70
2023/02/26 09:37:51;;;;;;;0.10;0.10;;;;;;;1.37;73.39;97660.56;5075804;28;20048;-70
2023/02/26 09:40:24;;;;;;;0.10;0.10;;;;;;;1.19;75.69;97678.03;5062987;28;20182;-70
2023/02/26 09:43:06;;;;;;;0.10;0.10;;;;;;;1.02;76.53;97671.00;5063160;28;20048;-70
2023/02/26 09:45:37;;;;;;;0.10;0.10;;;;;;;0.99;77.60;97677.69;5064578;28;20052;-70
2023/02/26 09:48:05;;;;;;;0.10;0.10;;;;;;;1.12;77.67;97672.91;5063435;28;20054;-70
2023/02/26 09:50:39;;;;;;;0.10;0.10;;;;;;;1.18;75.67;97674.53;5077724;28;20523;-70
2023/02/26 09:53:14;;;;;;;0.10;0.10;;;;;;;1.22;74.87;97675.59;5063563;28;20071;-70
2023/02/26 09:55:43;;;;;;;0.10;0.10;;;;;;;1.24;74.66;97680.72;5064746;28;20040;-70
2023/02/26 09:58:16;;;;;;;0.10;0.10;;;;;;;1.25;73.84;97664.31;5062002;28;20059;-70
2023/02/26 10:00:51;;;;;;;0.10;0.10;;;;;;;1.32;73.11;97684.78;5030991;28;20048;-70
2023/02/26 10:03:25;;;;;;;0.10;0.10;;;;;;;1.41;72.50;97680.50;5064964;28;20052;-70
2023/02/26 10:06:21;;;;;;;0.10;0.10;;;;;;;1.52;71.69;97687.50;5044431;28;20053;-70
2023/02/26 10:09:07;;;;;;;0.10;0.10;;;;;;;1.52;71.42;97697.50;5036670;28;20060;-70
2023/02/26 10:11:45;;;;;;;0.17;0.17;;;;;;;1.61;70.83;97730.91;5042186;28;20053;-70
2023/02/26 10:14:17;;;;;;;0.20;0.20;;;;;;;1.67;70.65;97696.69;5043954;28;20094;-70
2023/02/26 10:16:50;;;;;;;0.10;0.10;;;;;;;1.79;70.37;97715.28;5063275;28;20041;-70
2023/02/26 10:19:18;;;;;;;0.20;0.20;;;;;;;1.78;69.19;97706.41;5065148;28;20052;-70
2023/02/26 10:21:49;;;;;;;0.10;0.10;;;;;;;1.80;68.64;97716.94;5045123;28;20037;-70
2023/02/26 10:24:21;;;;;;;0.20;0.20;;;;;;;1.81;68.26;97723.94;5063470;28;20073;-70
2023/02/26 10:26:52;;;;;;;0.10;0.10;;;;;;;1.83;67.37;97717.19;5061603;28;20049;-71
2023/02/26 10:29:23;;;;;;;0.10;0.10;;;;;;;1.79;66.94;97744.94;5066075;28;20056;-71
2023/02/26 10:32:11;;;;;;;0.10;0.10;;;;;;;1.69;66.99;97730.38;5069130;28;20514;-70
2023/02/26 10:34:43;;;;;;;0.15;0.15;;;;;;;1.66;66.41;97722.84;5066965;28;20067;-70
2023/02/26 10:37:16;;;;;;;0.10;0.10;;;;;;;1.77;66.17;97720.97;5068504;28;20052;-71
2023/02/26 10:39:47;;;;;;;0.20;0.20;;;;;;;1.98;65.25;97729.06;5068952;28;20143;-71
2023/02/26 10:42:20;;;;;;;0.10;0.10;;;;;;;2.09;63.94;97746.84;5065578;28;20052;-71
2023/02/26 10:44:56;;;;;;;0.20;0.20;;;;;;;2.04;63.99;97744.16;5066668;28;20071;-71
2023/02/26 10:47:34;;;;;;;0.10;0.10;;;;;;;2.15;63.67;97742.28;5049020;28;20102;-71
2023/02/26 10:50:03;;;;;;;0.10;0.10;;;;;;;2.31;63.23;97726.09;5063916;28;20080;-71
2023/02/26 10:52:33;;;;;;;0.10;0.10;;;;;;;2.29;62.32;97726.34;5065298;28;20542;-71
2023/02/26 10:55:12;;;;;;;0.10;0.10;;;;;;;2.21;62.14;97743.88;4707978;28;10000222;-71
2023/02/26 10:57:45;;;;;;;0.20;0.20;;;;;;;2.10;61.57;97743.09;5064288;28;20636;-71
2023/02/26 11:00:17;;;;;;;0.10;0.10;;;;;;;2.05;62.01;97743.09;5063931;28;20052;-71
2023/02/26 11:02:47;;;;;;;0.10;0.10;;;;;;;1.92;62.31;97786.75;5058954;28;20082;-71
2023/02/26 11:05:17;;;;;;;0.20;0.20;;;;;;;1.72;62.67;97734.44;5063458;28;20060;-71
2023/02/26 11:07:46;;;;;;;0.10;0.10;;;;;;;1.81;63.27;97759.75;5061558;28;20059;-71
2023/02/26 11:10:14;;;;;;;0.10;0.10;;;;;;;1.81;63.19;97748.19;5047205;28;20040;-71
2023/02/26 11:12:41;;;;;;;0.10;0.10;;;;;;;1.86;62.92;97777.00;5062379;28;20433;-70
2023/02/26 11:15:16;;;;;;;0.10;0.10;;;;;;;1.82;63.10;97731.75;5065146;28;20040;-71
2023/02/26 11:17:44;;;;;;;0.10;0.10;;;;;;;1.88;63.03;97761.41;5046413;28;20052;-71
2023/02/26 11:20:16;;;;;;;;;;;;;;;1.90;63.24;97751.16;5063942;28;20214;-70
2023/02/26 11:22:46;;;;;;;0.13;0.13;;;;;;;1.93;63.16;97747.94;5061047;28;20030;-71
2023/02/26 11:25:13;;;;;;;0.10;0.10;;;;;;;1.95;62.99;97770.84;5059748;28;20388;-71
2023/02/26 11:27:44;;;;;;;0.10;0.10;;;;;;;1.90;63.61;97778.13;5064181;28;20052;-69
2023/02/26 11:30:17;;;;;;;0.10;0.10;;;;;;;1.80;64.11;97746.56;5065270;28;20055;-69
2023/02/26 11:32:49;;;;;;;0.10;0.10;;;;;;;1.84;64.27;97753.84;5048440;28;20045;-68
2023/02/26 11:35:17;;;;;;;0.17;0.17;;;;;;;1.82;64.59;97750.59;5065939;28;20064;-68
2023/02/26 11:37:48;;;;;;;0.10;0.10;;;;;;;1.78;64.84;97775.66;5064288;28;20048;-69
2023/02/26 11:40:17;;;;;;;0.15;0.15;;;;;;;1.78;65.19;97778.34;5066357;28;20051;-68
2023/02/26 11:42:47;;;;;;;0.10;0.10;;;;;;;1.89;64.76;97763.81;5064305;28;20053;-68
2023/02/26 11:45:17;;;;;;;0.20;0.20;;;;;;;2.06;64.50;97766.28;5048022;28;20055;-69
2023/02/26 11:47:46;;;;;;;0.20;0.20;;;;;;;2.29;63.47;97757.91;5065218;28;20503;-69
2023/02/26 11:50:16;;;;;;;0.20;0.20;;;;;;;2.39;63.22;97761.41;5065985;28;20570;-69